sensor_id;sensor_type;location;lat;lon;timestamp;temperature;humidity
84141;DHT22;74257;52.540;13.416;2024-01-15T00:02:19;21.90;38.00
84141;DHT22;74257;52.540;13.416;2024-01-15T00:04:45;21.90;38.00
84141;DHT22;74257;52.540;13.416;2024-01-15T00:07:10;21.90;38.00
84141;DHT22;74257;52.540;13.416;2024-01-15T00:09:36;21.90;38.00
84141;DHT22;74257;52.540;13.416;2024-01-15T00:12:02;21.90;37.90
84141;DHT22;74257;52.540;13.416;2024-01-15T00:14:28;21.90;37.90
84141;DHT22;74257;52.540;13.416;2024-01-15T00:16:54;21.90;37.90
84141;DHT22;74257;52.540;13.416;2024-01-15T00:19:21;21.80;37.80
84141;DHT22;74257;52.540;13.416;2024-01-15T00:21:47;21.80;37.80
84141;DHT22;74257;52.540;13.416;2024-01-15T00:24:14;21.80;37.80
84141;DHT22;74257;52.540;13.416;2024-01-15T00:26:40;21.80;37.80
84141;DHT22;74257;52.540;13.416;2024-01-15T00:29:09;21.70;37.70
84141;DHT22;74257;52.540;13.416;2024-01-15T00:31:35;21.70;37.80
84141;DHT22;74257;52.540;13.416;2024-01-15T00:34:01;21.70;37.80
84141;DHT22;74257;52.540;13.416;2024-01-15T00:36:27;21.70;37.80
84141;DHT22;74257;52.540;13.416;2024-01-15T00:38:53;21.70;37.80
84141;DHT22;74257;52.540;13.416;2024-01-15T00:41:19;21.70;37.80
84141;DHT22;74257;52.540;13.416;2024-01-15T00:43:46;21.70;37.90
84141;DHT22;74257;52.540;13.416;2024-01-15T00:46:12;21.70;37.80
84141;DHT22;74257;52.540;13.416;2024-01-15T00:48:38;21.70;37.80
84141;DHT22;74257;52.540;13.416;2024-01-15T00:51:06;21.70;37.80
84141;DHT22;74257;52.540;13.416;2024-01-15T00:53:32;21.70;37.80
84141;DHT22;74257;52.540;13.416;2024-01-15T00:55:58;21.60;37.80
84141;DHT22;74257;52.540;13.416;2024-01-15T00:58:26;21.60;37.80
84141;DHT22;74257;52.540;13.416;2024-01-15T01:00:51;21.60;37.80
84141;DHT22;74257;52.540;13.416;2024-01-15T01:03:17;21.50;37.70
84141;DHT22;74257;52.540;13.416;2024-01-15T01:05:43;21.50;37.70
84141;DHT22;74257;52.540;13.416;2024-01-15T01:08:10;21.50;37.60
84141;DHT22;74257;52.540;13.416;2024-01-15T01:10:37;21.50;37.60
84141;DHT22;74257;52.540;13.416;2024-01-15T01:13:03;21.50;37.60
84141;DHT22;74257;52.540;13.416;2024-01-15T01:15:29;21.50;37.60
84141;DHT22;74257;52.540;13.416;2024-01-15T01:17:55;21.50;37.60
84141;DHT22;74257;52.540;13.416;2024-01-15T01:20:20;21.50;37.50
84141;DHT22;74257;52.540;13.416;2024-01-15T01:22:46;21.50;37.50
84141;DHT22;74257;52.540;13.416;2024-01-15T01:25:12;21.50;37.50
84141;DHT22;74257;52.540;13.416;2024-01-15T01:27:38;21.50;37.50
84141;DHT22;74257;52.540;13.416;2024-01-15T01:30:04;21.40;37.40
84141;DHT22;74257;52.540;13.416;2024-01-15T01:32:31;21.40;37.50
84141;DHT22;74257;52.540;13.416;2024-01-15T01:34:56;21.40;37.50
84141;DHT22;74257;52.540;13.416;2024-01-15T01:37:22;21.40;37.50
84141;DHT22;74257;52.540;13.416;2024-01-15T01:39:48;21.40;37.50
84141;DHT22;74257;52.540;13.416;2024-01-15T01:42:15;21.40;37.50
84141;DHT22;74257;52.540;13.416;2024-01-15T01:44:40;21.40;37.50
84141;DHT22;74257;52.540;13.416;2024-01-15T01:47:07;21.40;37.50
84141;DHT22;74257;52.540;13.416;2024-01-15T01:49:33;21.30;37.60
84141;DHT22;74257;52.540;13.416;2024-01-15T01:52:02;21.40;37.60
84141;DHT22;74257;52.540;13.416;2024-01-15T01:54:31;21.30;37.60
84141;DHT22;74257;52.540;13.416;2024-01-15T01:56:57;21.30;37.60
84141;DHT22;74257;52.540;13.416;2024-01-15T01:59:25;21.30;37.60
84141;DHT22;74257;52.540;13.416;2024-01-15T02:01:54;21.30;37.60
84141;DHT22;74257;52.540;13.416;2024-01-15T02:04:20;21.30;37.60
84141;DHT22;74257;52.540;13.416;2024-01-15T02:06:48;21.20;37.60
84141;DHT22;74257;52.540;13.416;2024-01-15T02:09:14;21.20;37.60
84141;DHT22;74257;52.540;13.416;2024-01-15T02:11:43;21.20;37.60
84141;DHT22;74257;52.540;13.416;2024-01-15T02:14:09;21.20;37.60
84141;DHT22;74257;52.540;13.416;2024-01-15T02:16:35;21.10;37.60
84141;DHT22;74257;52.540;13.416;2024-01-15T02:19:01;21.10;37.60
84141;DHT22;74257;52.540;13.416;2024-01-15T02:21:27;21.10;37.60
84141;DHT22;74257;52.540;13.416;2024-01-15T02:23:54;21.10;37.50
84141;DHT22;74257;52.540;13.416;2024-01-15T02:26:21;21.10;37.50
84141;DHT22;74257;52.540;13.416;2024-01-15T02:28:48;21.10;37.50
84141;DHT22;74257;52.540;13.416;2024-01-15T02:31:14;21.10;37.40
84141;DHT22;74257;52.540;13.416;2024-01-15T02:33:40;21.10;37.30
84141;DHT22;74257;52.540;13.416;2024-01-15T02:36:08;21.10;37.40
84141;DHT22;74257;52.540;13.416;2024-01-15T02:38:33;21.10;37.30
84141;DHT22;74257;52.540;13.416;2024-01-15T02:40:59;21.10;37.30
84141;DHT22;74257;52.540;13.416;2024-01-15T02:43:25;21.10;37.30
84141;DHT22;74257;52.540;13.416;2024-01-15T02:45:51;21.10;37.30
84141;DHT22;74257;52.540;13.416;2024-01-15T02:48:17;21.10;37.30
84141;DHT22;74257;52.540;13.416;2024-01-15T02:50:43;21.10;37.20
84141;DHT22;74257;52.540;13.416;2024-01-15T02:53:08;21.00;37.20
84141;DHT22;74257;52.540;13.416;2024-01-15T02:55:34;21.00;37.30
84141;DHT22;74257;52.540;13.416;2024-01-15T02:58:00;21.00;37.30
84141;DHT22;74257;52.540;13.416;2024-01-15T03:00:26;21.00;37.30
84141;DHT22;74257;52.540;13.416;2024-01-15T03:02:51;21.00;37.40
84141;DHT22;74257;52.540;13.416;2024-01-15T03:05:18;21.00;37.30
84141;DHT22;74257;52.540;13.416;2024-01-15T03:07:43;21.00;37.40
84141;DHT22;74257;52.540;13.416;2024-01-15T03:10:09;21.00;37.40
84141;DHT22;74257;52.540;13.416;2024-01-15T03:12:35;21.00;37.40
84141;DHT22;74257;52.540;13.416;2024-01-15T03:15:02;20.90;37.50
84141;DHT22;74257;52.540;13.416;2024-01-15T03:17:28;20.90;37.50
84141;DHT22;74257;52.540;13.416;2024-01-15T03:19:54;20.90;37.40
84141;DHT22;74257;52.540;13.416;2024-01-15T03:22:19;20.90;37.50
84141;DHT22;74257;52.540;13.416;2024-01-15T03:24:45;20.90;37.40
84141;DHT22;74257;52.540;13.416;2024-01-15T03:27:11;20.90;37.40
84141;DHT22;74257;52.540;13.416;2024-01-15T03:29:37;20.90;37.30
84141;DHT22;74257;52.540;13.416;2024-01-15T03:32:03;20.90;37.50
84141;DHT22;74257;52.540;13.416;2024-01-15T03:34:29;20.90;37.40
84141;DHT22;74257;52.540;13.416;2024-01-15T03:36:55;20.90;37.40
84141;DHT22;74257;52.540;13.416;2024-01-15T03:39:21;20.90;37.40
84141;DHT22;74257;52.540;13.416;2024-01-15T03:41:46;20.90;37.30
84141;DHT22;74257;52.540;13.416;2024-01-15T03:44:12;20.90;37.30
84141;DHT22;74257;52.540;13.416;2024-01-15T03:46:38;20.80;37.30
84141;DHT22;74257;52.540;13.416;2024-01-15T03:49:04;20.80;37.30
84141;DHT22;74257;52.540;13.416;2024-01-15T03:51:30;20.80;37.30
84141;DHT22;74257;52.540;13.416;2024-01-15T03:53:55;20.80;37.20
84141;DHT22;74257;52.540;13.416;2024-01-15T03:56:21;20.80;37.30
84141;DHT22;74257;52.540;13.416;2024-01-15T03:58:47;20.80;37.30
84141;DHT22;74257;52.540;13.416;2024-01-15T04:01:13;20.80;37.20
84141;DHT22;74257;52.540;13.416;2024-01-15T04:03:39;20.80;37.20
84141;DHT22;74257;52.540;13.416;2024-01-15T04:06:04;20.80;37.20
84141;DHT22;74257;52.540;13.416;2024-01-15T04:08:30;20.80;37.30
84141;DHT22;74257;52.540;13.416;2024-01-15T04:10:56;20.80;37.20
84141;DHT22;74257;52.540;13.416;2024-01-15T04:13:22;20.70;37.20
84141;DHT22;74257;52.540;13.416;2024-01-15T04:15:48;20.70;37.20
84141;DHT22;74257;52.540;13.416;2024-01-15T04:18:16;20.70;37.20
84141;DHT22;74257;52.540;13.416;2024-01-15T04:20:42;20.70;37.20
84141;DHT22;74257;52.540;13.416;2024-01-15T04:23:08;20.70;37.30
84141;DHT22;74257;52.540;13.416;2024-01-15T04:25:33;20.70;37.20
84141;DHT22;74257;52.540;13.416;2024-01-15T04:27:59;20.70;37.30
84141;DHT22;74257;52.540;13.416;2024-01-15T04:30:25;20.70;37.30
84141;DHT22;74257;52.540;13.416;2024-01-15T04:32:51;20.70;37.30
84141;DHT22;74257;52.540;13.416;2024-01-15T04:35:17;20.60;37.30
84141;DHT22;74257;52.540;13.416;2024-01-15T04:37:43;20.70;37.30
84141;DHT22;74257;52.540;13.416;2024-01-15T04:40:09;20.70;37.30
84141;DHT22;74257;52.540;13.416;2024-01-15T04:42:35;20.60;37.30
84141;DHT22;74257;52.540;13.416;2024-01-15T04:45:01;20.60;37.30
84141;DHT22;74257;52.540;13.416;2024-01-15T04:47:27;20.60;37.30
84141;DHT22;74257;52.540;13.416;2024-01-15T04:49:52;20.60;37.20
84141;DHT22;74257;52.540;13.416;2024-01-15T04:52:18;20.60;37.30
84141;DHT22;74257;52.540;13.416;2024-01-15T04:54:44;20.60;37.30
84141;DHT22;74257;52.540;13.416;2024-01-15T04:57:10;20.60;37.30
84141;DHT22;74257;52.540;13.416;2024-01-15T04:59:36;20.60;37.20
84141;DHT22;74257;52.540;13.416;2024-01-15T05:02:02;20.60;37.20
84141;DHT22;74257;52.540;13.416;2024-01-15T05:04:28;20.60;37.20
84141;DHT22;74257;52.540;13.416;2024-01-15T05:06:55;20.50;37.20
84141;DHT22;74257;52.540;13.416;2024-01-15T05:09:20;20.60;37.20
84141;DHT22;74257;52.540;13.416;2024-01-15T05:11:46;20.60;37.20
84141;DHT22;74257;52.540;13.416;2024-01-15T05:14:12;20.50;37.10
84141;DHT22;74257;52.540;13.416;2024-01-15T05:16:39;20.50;37.10
84141;DHT22;74257;52.540;13.416;2024-01-15T05:19:07;20.50;37.00
84141;DHT22;74257;52.540;13.416;2024-01-15T05:21:33;20.50;37.10
84141;DHT22;74257;52.540;13.416;2024-01-15T05:23:58;20.50;37.10
84141;DHT22;74257;52.540;13.416;2024-01-15T05:26:24;20.50;37.00
84141;DHT22;74257;52.540;13.416;2024-01-15T05:28:50;20.50;37.10
84141;DHT22;74257;52.540;13.416;2024-01-15T05:31:16;20.50;37.00
84141;DHT22;74257;52.540;13.416;2024-01-15T05:33:42;20.50;37.00
84141;DHT22;74257;52.540;13.416;2024-01-15T05:36:08;20.50;37.00
84141;DHT22;74257;52.540;13.416;2024-01-15T05:38:33;20.50;37.10
84141;DHT22;74257;52.540;13.416;2024-01-15T05:40:59;20.50;37.10
84141;DHT22;74257;52.540;13.416;2024-01-15T05:43:25;20.50;37.20
84141;DHT22;74257;52.540;13.416;2024-01-15T05:45:51;20.50;37.20
84141;DHT22;74257;52.540;13.416;2024-01-15T05:48:17;20.50;37.30
84141;DHT22;74257;52.540;13.416;2024-01-15T05:50:43;20.60;37.50
84141;DHT22;74257;52.540;13.416;2024-01-15T05:53:09;20.70;37.60
84141;DHT22;74257;52.540;13.416;2024-01-15T05:55:36;20.80;37.60
84141;DHT22;74257;52.540;13.416;2024-01-15T05:58:03;20.80;37.70
84141;DHT22;74257;52.540;13.416;2024-01-15T06:00:29;20.90;37.70
84141;DHT22;74257;52.540;13.416;2024-01-15T06:02:55;21.00;37.70
84141;DHT22;74257;52.540;13.416;2024-01-15T06:05:21;21.00;37.70
84141;DHT22;74257;52.540;13.416;2024-01-15T06:07:46;21.10;37.60
84141;DHT22;74257;52.540;13.416;2024-01-15T06:10:12;21.10;37.60
84141;DHT22;74257;52.540;13.416;2024-01-15T06:12:38;21.30;37.50
84141;DHT22;74257;52.540;13.416;2024-01-15T06:15:04;21.30;37.50
84141;DHT22;74257;52.540;13.416;2024-01-15T06:17:30;21.40;37.60
84141;DHT22;74257;52.540;13.416;2024-01-15T06:19:57;21.40;37.70
84141;DHT22;74257;52.540;13.416;2024-01-15T06:22:23;21.50;37.80
84141;DHT22;74257;52.540;13.416;2024-01-15T06:24:49;21.50;37.80
84141;DHT22;74257;52.540;13.416;2024-01-15T06:27:15;21.50;37.90
84141;DHT22;74257;52.540;13.416;2024-01-15T06:29:45;21.50;38.00
84141;DHT22;74257;52.540;13.416;2024-01-15T06:32:14;21.70;38.00
84141;DHT22;74257;52.540;13.416;2024-01-15T06:34:40;21.70;38.00
84141;DHT22;74257;52.540;13.416;2024-01-15T06:37:06;21.70;37.80
84141;DHT22;74257;52.540;13.416;2024-01-15T06:39:32;21.70;37.80
84141;DHT22;74257;52.540;13.416;2024-01-15T06:41:57;21.70;37.90
84141;DHT22;74257;52.540;13.416;2024-01-15T06:44:23;21.80;37.90
84141;DHT22;74257;52.540;13.416;2024-01-15T06:46:49;21.80;38.00
84141;DHT22;74257;52.540;13.416;2024-01-15T06:49:15;21.80;38.00
84141;DHT22;74257;52.540;13.416;2024-01-15T06:51:41;21.90;38.00
84141;DHT22;74257;52.540;13.416;2024-01-15T06:54:07;21.90;38.00
84141;DHT22;74257;52.540;13.416;2024-01-15T06:56:33;21.90;38.00
84141;DHT22;74257;52.540;13.416;2024-01-15T06:58:59;21.90;38.00
84141;DHT22;74257;52.540;13.416;2024-01-15T07:01:25;21.90;38.00
84141;DHT22;74257;52.540;13.416;2024-01-15T07:03:51;21.90;37.90
84141;DHT22;74257;52.540;13.416;2024-01-15T07:06:16;21.90;37.80
84141;DHT22;74257;52.540;13.416;2024-01-15T07:08:43;21.90;37.80
84141;DHT22;74257;52.540;13.416;2024-01-15T07:11:08;22.00;37.70
84141;DHT22;74257;52.540;13.416;2024-01-15T07:13:36;22.00;37.70
84141;DHT22;74257;52.540;13.416;2024-01-15T07:16:02;22.00;37.60
84141;DHT22;74257;52.540;13.416;2024-01-15T07:18:28;22.00;37.60
84141;DHT22;74257;52.540;13.416;2024-01-15T07:20:54;22.00;37.60
84141;DHT22;74257;52.540;13.416;2024-01-15T07:23:20;22.00;37.50
84141;DHT22;74257;52.540;13.416;2024-01-15T07:25:45;22.00;37.50
84141;DHT22;74257;52.540;13.416;2024-01-15T07:28:11;22.00;37.50
84141;DHT22;74257;52.540;13.416;2024-01-15T07:30:37;22.00;37.50
84141;DHT22;74257;52.540;13.416;2024-01-15T07:33:05;22.00;37.40
84141;DHT22;74257;52.540;13.416;2024-01-15T07:35:32;22.00;37.30
84141;DHT22;74257;52.540;13.416;2024-01-15T07:37:58;22.00;37.30
84141;DHT22;74257;52.540;13.416;2024-01-15T07:40:23;22.00;37.30
84141;DHT22;74257;52.540;13.416;2024-01-15T07:42:51;22.00;37.30
84141;DHT22;74257;52.540;13.416;2024-01-15T07:45:17;22.10;37.30
84141;DHT22;74257;52.540;13.416;2024-01-15T07:47:43;22.10;37.30
84141;DHT22;74257;52.540;13.416;2024-01-15T07:50:10;22.10;37.30
84141;DHT22;74257;52.540;13.416;2024-01-15T07:52:36;22.10;37.30
84141;DHT22;74257;52.540;13.416;2024-01-15T07:55:02;22.10;37.30
84141;DHT22;74257;52.540;13.416;2024-01-15T07:57:29;22.10;37.30
84141;DHT22;74257;52.540;13.416;2024-01-15T07:59:55;22.10;37.30
84141;DHT22;74257;52.540;13.416;2024-01-15T08:02:21;22.10;37.40
84141;DHT22;74257;52.540;13.416;2024-01-15T08:04:47;22.10;37.30
84141;DHT22;74257;52.540;13.416;2024-01-15T08:07:13;22.10;37.30
84141;DHT22;74257;52.540;13.416;2024-01-15T08:09:39;22.10;37.30
84141;DHT22;74257;52.540;13.416;2024-01-15T08:12:05;22.10;37.30
84141;DHT22;74257;52.540;13.416;2024-01-15T08:14:32;22.10;37.30
84141;DHT22;74257;52.540;13.416;2024-01-15T08:16:57;22.10;37.40
84141;DHT22;74257;52.540;13.416;2024-01-15T08:19:23;22.10;37.40
84141;DHT22;74257;52.540;13.416;2024-01-15T08:21:50;22.10;37.30
84141;DHT22;74257;52.540;13.416;2024-01-15T08:24:16;22.10;37.30
84141;DHT22;74257;52.540;13.416;2024-01-15T08:26:42;22.10;37.40
84141;DHT22;74257;52.540;13.416;2024-01-15T08:29:08;22.10;37.40
84141;DHT22;74257;52.540;13.416;2024-01-15T08:31:34;22.20;37.40
84141;DHT22;74257;52.540;13.416;2024-01-15T08:34:00;22.20;37.40
84141;DHT22;74257;52.540;13.416;2024-01-15T08:36:28;22.20;37.40
84141;DHT22;74257;52.540;13.416;2024-01-15T08:38:56;22.20;37.40
84141;DHT22;74257;52.540;13.416;2024-01-15T08:41:22;22.20;37.40
84141;DHT22;74257;52.540;13.416;2024-01-15T08:43:48;22.20;37.30
84141;DHT22;74257;52.540;13.416;2024-01-15T08:46:14;22.20;37.30
84141;DHT22;74257;52.540;13.416;2024-01-15T08:48:40;22.20;37.30
84141;DHT22;74257;52.540;13.416;2024-01-15T08:51:06;22.20;37.30
84141;DHT22;74257;52.540;13.416;2024-01-15T08:53:33;22.20;37.40
84141;DHT22;74257;52.540;13.416;2024-01-15T08:55:59;22.20;37.40
84141;DHT22;74257;52.540;13.416;2024-01-15T08:58:25;22.20;37.40
84141;DHT22;74257;52.540;13.416;2024-01-15T09:00:51;22.20;37.60
84141;DHT22;74257;52.540;13.416;2024-01-15T09:03:17;22.20;37.60
84141;DHT22;74257;52.540;13.416;2024-01-15T09:05:43;22.20;37.60
84141;DHT22;74257;52.540;13.416;2024-01-15T09:08:09;22.20;37.70
84141;DHT22;74257;52.540;13.416;2024-01-15T09:10:35;22.20;37.70
84141;DHT22;74257;52.540;13.416;2024-01-15T09:13:00;22.20;37.70
84141;DHT22;74257;52.540;13.416;2024-01-15T09:15:26;22.20;37.70
84141;DHT22;74257;52.540;13.416;2024-01-15T09:17:53;22.20;37.60
84141;DHT22;74257;52.540;13.416;2024-01-15T09:20:20;22.20;37.60
84141;DHT22;74257;52.540;13.416;2024-01-15T09:22:46;22.20;37.60
84141;DHT22;74257;52.540;13.416;2024-01-15T09:25:12;22.20;37.70
84141;DHT22;74257;52.540;13.416;2024-01-15T09:27:38;22.20;37.60
84141;DHT22;74257;52.540;13.416;2024-01-15T09:30:04;22.20;37.70
84141;DHT22;74257;52.540;13.416;2024-01-15T09:32:30;22.20;37.70
84141;DHT22;74257;52.540;13.416;2024-01-15T09:34:57;22.20;37.70
84141;DHT22;74257;52.540;13.416;2024-01-15T09:37:23;22.20;37.70
84141;DHT22;74257;52.540;13.416;2024-01-15T09:39:49;22.20;37.70
84141;DHT22;74257;52.540;13.416;2024-01-15T09:42:16;22.20;37.70
84141;DHT22;74257;52.540;13.416;2024-01-15T09:44:42;22.20;37.80
84141;DHT22;74257;52.540;13.416;2024-01-15T09:47:08;22.20;37.80
84141;DHT22;74257;52.540;13.416;2024-01-15T09:49:34;22.20;37.90
84141;DHT22;74257;52.540;13.416;2024-01-15T09:52:01;22.20;37.80
84141;DHT22;74257;52.540;13.416;2024-01-15T09:54:27;22.20;37.90
84141;DHT22;74257;52.540;13.416;2024-01-15T09:56:54;22.20;37.90
84141;DHT22;74257;52.540;13.416;2024-01-15T09:59:20;22.20;37.90
84141;DHT22;74257;52.540;13.416;2024-01-15T10:01:50;22.20;38.00
84141;DHT22;74257;52.540;13.416;2024-01-15T10:04:15;22.20;38.00
84141;DHT22;74257;52.540;13.416;2024-01-15T10:06:45;22.20;38.00
84141;DHT22;74257;52.540;13.416;2024-01-15T10:09:12;22.20;38.00
84141;DHT22;74257;52.540;13.416;2024-01-15T10:11:42;22.20;38.00
84141;DHT22;74257;52.540;13.416;2024-01-15T10:14:12;22.20;38.00
84141;DHT22;74257;52.540;13.416;2024-01-15T10:16:42;22.30;38.00
84141;DHT22;74257;52.540;13.416;2024-01-15T10:19:08;22.20;38.00
84141;DHT22;74257;52.540;13.416;2024-01-15T10:21:35;22.20;38.00
84141;DHT22;74257;52.540;13.416;2024-01-15T10:24:00;22.30;38.00
84141;DHT22;74257;52.540;13.416;2024-01-15T10:26:27;22.20;38.10
84141;DHT22;74257;52.540;13.416;2024-01-15T10:28:52;22.20;38.20
84141;DHT22;74257;52.540;13.416;2024-01-15T10:31:18;22.20;38.20
84141;DHT22;74257;52.540;13.416;2024-01-15T10:33:47;22.20;38.00
84141;DHT22;74257;52.540;13.416;2024-01-15T10:36:15;22.20;38.00
84141;DHT22;74257;52.540;13.416;2024-01-15T10:38:42;22.20;38.00
84141;DHT22;74257;52.540;13.416;2024-01-15T10:41:08;22.20;37.90
84141;DHT22;74257;52.540;13.416;2024-01-15T10:43:34;22.20;37.90
84141;DHT22;74257;52.540;13.416;2024-01-15T10:46:01;22.20;37.80
84141;DHT22;74257;52.540;13.416;2024-01-15T10:48:27;22.20;37.80
84141;DHT22;74257;52.540;13.416;2024-01-15T10:50:57;22.20;37.90
84141;DHT22;74257;52.540;13.416;2024-01-15T10:53:24;22.20;37.90
84141;DHT22;74257;52.540;13.416;2024-01-15T10:55:51;22.20;38.00
84141;DHT22;74257;52.540;13.416;2024-01-15T10:58:17;22.30;38.10
84141;DHT22;74257;52.540;13.416;2024-01-15T11:00:44;22.30;38.30
84141;DHT22;74257;52.540;13.416;2024-01-15T11:03:10;22.40;38.40
84141;DHT22;74257;52.540;13.416;2024-01-15T11:05:38;22.50;38.50
84141;DHT22;74257;52.540;13.416;2024-01-15T11:08:06;22.50;38.70
84141;DHT22;74257;52.540;13.416;2024-01-15T11:10:47;22.60;38.70
84141;DHT22;74257;52.540;13.416;2024-01-15T11:13:21;22.70;38.60
84141;DHT22;74257;52.540;13.416;2024-01-15T11:16:01;22.80;38.60
84141;DHT22;74257;52.540;13.416;2024-01-15T11:18:34;22.80;38.50
84141;DHT22;74257;52.540;13.416;2024-01-15T11:24:32;23.00;38.50
84141;DHT22;74257;52.540;13.416;2024-01-15T11:26:44;23.00;38.50
84141;DHT22;74257;52.540;13.416;2024-01-15T11:29:33;23.00;38.50
84141;DHT22;74257;52.540;13.416;2024-01-15T11:32:02;23.10;38.40
84141;DHT22;74257;52.540;13.416;2024-01-15T11:34:55;23.10;38.40
84141;DHT22;74257;52.540;13.416;2024-01-15T11:37:25;23.20;38.30
84141;DHT22;74257;52.540;13.416;2024-01-15T11:39:52;23.20;38.30
84141;DHT22;74257;52.540;13.416;2024-01-15T11:42:20;23.30;38.30
84141;DHT22;74257;52.540;13.416;2024-01-15T11:44:46;23.30;38.30
84141;DHT22;74257;52.540;13.416;2024-01-15T11:47:12;23.30;38.30
84141;DHT22;74257;52.540;13.416;2024-01-15T11:50:03;23.30;38.30
84141;DHT22;74257;52.540;13.416;2024-01-15T11:52:36;23.40;38.20
84141;DHT22;74257;52.540;13.416;2024-01-15T11:57:52;23.40;38.10
84141;DHT22;74257;52.540;13.416;2024-01-15T12:00:20;23.40;38.00
84141;DHT22;74257;52.540;13.416;2024-01-15T12:02:48;23.40;38.00
84141;DHT22;74257;52.540;13.416;2024-01-15T12:05:17;23.40;38.00
84141;DHT22;74257;52.540;13.416;2024-01-15T12:07:44;23.40;37.90
84141;DHT22;74257;52.540;13.416;2024-01-15T12:10:13;23.40;37.90
84141;DHT22;74257;52.540;13.416;2024-01-15T12:15:26;23.50;37.70
84141;DHT22;74257;52.540;13.416;2024-01-15T12:17:54;23.50;37.80
84141;DHT22;74257;52.540;13.416;2024-01-15T12:20:21;23.50;37.70
84141;DHT22;74257;52.540;13.416;2024-01-15T12:22:47;23.50;37.70
84141;DHT22;74257;52.540;13.416;2024-01-15T12:25:12;23.50;37.70
84141;DHT22;74257;52.540;13.416;2024-01-15T12:27:38;23.50;37.70
84141;DHT22;74257;52.540;13.416;2024-01-15T12:30:05;23.50;37.60
84141;DHT22;74257;52.540;13.416;2024-01-15T12:32:31;23.50;37.70
84141;DHT22;74257;52.540;13.416;2024-01-15T12:34:57;23.50;37.60
84141;DHT22;74257;52.540;13.416;2024-01-15T12:37:24;23.50;37.60
84141;DHT22;74257;52.540;13.416;2024-01-15T12:39:52;23.50;37.60
84141;DHT22;74257;52.540;13.416;2024-01-15T12:42:18;23.50;37.50
84141;DHT22;74257;52.540;13.416;2024-01-15T12:44:45;23.50;37.50
84141;DHT22;74257;52.540;13.416;2024-01-15T12:47:11;23.60;37.50
84141;DHT22;74257;52.540;13.416;2024-01-15T12:49:38;23.60;37.40
84141;DHT22;74257;52.540;13.416;2024-01-15T12:52:08;23.60;37.40
84141;DHT22;74257;52.540;13.416;2024-01-15T12:54:34;23.60;37.40
84141;DHT22;74257;52.540;13.416;2024-01-15T12:57:00;23.60;37.40
84141;DHT22;74257;52.540;13.416;2024-01-15T12:59:25;23.60;37.30
84141;DHT22;74257;52.540;13.416;2024-01-15T13:01:51;23.60;37.30
84141;DHT22;74257;52.540;13.416;2024-01-15T13:04:24;23.60;37.30
84141;DHT22;74257;52.540;13.416;2024-01-15T13:06:51;23.60;37.30
84141;DHT22;74257;52.540;13.416;2024-01-15T13:09:17;23.60;37.20
84141;DHT22;74257;52.540;13.416;2024-01-15T13:11:44;23.60;37.20
84141;DHT22;74257;52.540;13.416;2024-01-15T13:14:11;23.60;37.20
84141;DHT22;74257;52.540;13.416;2024-01-15T13:16:37;23.60;37.10
84141;DHT22;74257;52.540;13.416;2024-01-15T13:19:02;23.60;37.10
84141;DHT22;74257;52.540;13.416;2024-01-15T13:21:30;23.60;37.10
84141;DHT22;74257;52.540;13.416;2024-01-15T13:23:56;23.60;37.10
84141;DHT22;74257;52.540;13.416;2024-01-15T13:26:22;23.60;37.10
84141;DHT22;74257;52.540;13.416;2024-01-15T13:28:47;23.60;37.00
84141;DHT22;74257;52.540;13.416;2024-01-15T13:31:14;23.60;37.00
84141;DHT22;74257;52.540;13.416;2024-01-15T13:33:40;23.60;37.00
84141;DHT22;74257;52.540;13.416;2024-01-15T13:36:06;23.60;37.00
84141;DHT22;74257;52.540;13.416;2024-01-15T13:38:38;23.60;36.90
84141;DHT22;74257;52.540;13.416;2024-01-15T13:41:05;23.60;36.90
84141;DHT22;74257;52.540;13.416;2024-01-15T13:43:31;23.60;36.90
84141;DHT22;74257;52.540;13.416;2024-01-15T13:45:57;23.60;36.80
84141;DHT22;74257;52.540;13.416;2024-01-15T13:48:23;23.60;36.70
84141;DHT22;74257;52.540;13.416;2024-01-15T13:50:49;23.60;36.80
84141;DHT22;74257;52.540;13.416;2024-01-15T13:53:16;23.60;36.80
84141;DHT22;74257;52.540;13.416;2024-01-15T13:55:42;23.60;36.70
84141;DHT22;74257;52.540;13.416;2024-01-15T13:58:08;23.60;36.70
84141;DHT22;74257;52.540;13.416;2024-01-15T14:00:34;23.60;36.60
84141;DHT22;74257;52.540;13.416;2024-01-15T14:02:59;23.60;36.70
84141;DHT22;74257;52.540;13.416;2024-01-15T14:05:25;23.60;36.70
84141;DHT22;74257;52.540;13.416;2024-01-15T14:07:51;23.60;36.60
84141;DHT22;74257;52.540;13.416;2024-01-15T14:10:17;23.60;36.60
84141;DHT22;74257;52.540;13.416;2024-01-15T14:12:43;23.60;36.60
84141;DHT22;74257;52.540;13.416;2024-01-15T14:15:09;23.60;36.60
84141;DHT22;74257;52.540;13.416;2024-01-15T14:17:35;23.60;36.60
84141;DHT22;74257;52.540;13.416;2024-01-15T14:20:01;23.60;36.60
84141;DHT22;74257;52.540;13.416;2024-01-15T14:22:26;23.60;36.50
84141;DHT22;74257;52.540;13.416;2024-01-15T14:24:52;23.60;36.50
84141;DHT22;74257;52.540;13.416;2024-01-15T14:27:19;23.60;36.50
84141;DHT22;74257;52.540;13.416;2024-01-15T14:29:45;23.60;36.40
84141;DHT22;74257;52.540;13.416;2024-01-15T14:32:11;23.60;36.40
84141;DHT22;74257;52.540;13.416;2024-01-15T14:34:37;23.60;36.40
84141;DHT22;74257;52.540;13.416;2024-01-15T14:37:03;23.60;36.40
84141;DHT22;74257;52.540;13.416;2024-01-15T14:39:29;23.60;36.30
84141;DHT22;74257;52.540;13.416;2024-01-15T14:41:55;23.60;36.30
84141;DHT22;74257;52.540;13.416;2024-01-15T14:44:22;23.60;36.40
84141;DHT22;74257;52.540;13.416;2024-01-15T14:46:48;23.60;36.40
84141;DHT22;74257;52.540;13.416;2024-01-15T14:49:14;23.60;36.40
84141;DHT22;74257;52.540;13.416;2024-01-15T14:51:41;23.60;36.30
84141;DHT22;74257;52.540;13.416;2024-01-15T14:54:07;23.60;36.30
84141;DHT22;74257;52.540;13.416;2024-01-15T14:56:34;23.60;36.50
84141;DHT22;74257;52.540;13.416;2024-01-15T14:59:00;23.60;36.40
84141;DHT22;74257;52.540;13.416;2024-01-15T15:01:26;23.60;36.40
84141;DHT22;74257;52.540;13.416;2024-01-15T15:03:52;23.60;36.40
84141;DHT22;74257;52.540;13.416;2024-01-15T15:06:18;23.60;36.40
84141;DHT22;74257;52.540;13.416;2024-01-15T15:08:44;23.60;36.30
84141;DHT22;74257;52.540;13.416;2024-01-15T15:11:09;23.60;36.20
84141;DHT22;74257;52.540;13.416;2024-01-15T15:13:36;23.60;36.20
84141;DHT22;74257;52.540;13.416;2024-01-15T15:16:02;23.60;36.20
84141;DHT22;74257;52.540;13.416;2024-01-15T15:18:28;23.60;36.30
84141;DHT22;74257;52.540;13.416;2024-01-15T15:20:55;23.60;36.50